New Castle, Kentucky
Current Conditions -  °F | °C
As of 10:53 PM on Sunday 23 Nov 2014 (Local Time) from KFFT Reporting Station
Light Rain Light Rain  
Wind Chill: 14°   Ceiling: 2400
Heat Index: 14°   Visibility: 6mi
Dew Point: 12°   Wind: 12mph
Humidity: 87%   Direction: 170°S
Pressure: 29.32"   Gusts: 23mph
Location:  38.43°N, 85.17°W
Report Text: KFFT 240353Z AUTO 17010G20KT 6SM -RA BR FEW019 BKN024 OVC029 14/12 A2932 RMK AO2 RAB52 SLP927 P0001 T01440122
Loading
Personal Weather Stations






























Interactive Weather Map New forecast layout! Learn more

10-Day Weather Forecast

Advertisements
Track Severe Weather on mobile